Granite City, Illinois
Current Conditions -  °F | °C
As of 3:53 AM on Sunday 25 Jan 2015 (Local Time) from KCPS Reporting Station
Light Rain Light Rain  
Wind Chill:   Ceiling: 6000
Heat Index:   Visibility: 10mi
Dew Point:   Wind: 5mph
Humidity: 74%   Direction: 180°S
Pressure: 29.63"   Gusts: NA
Location:  38.7°N, 90.15°W
Report Text: KCPS 250953Z AUTO 18004KT 10SM -RA FEW045 BKN060 OVC075 08/04 A2963 RMK AO2 SLP033 P0000 T00830039 TSNO
Loading
Personal Weather Stations






























Interactive Weather Map New forecast layout! Learn more

10-Day Weather Forecast

Advertisements
Track Severe Weather on mobile